sensor_id;sensor_type;location;lat;lon;timestamp;pressure;altitude;pressure_sealevel;temperature;humidity
14120;BME280;7138;49.246;9.100;2023-03-21T00:01:12;98961.75;;;11.93;73.66
14120;BME280;7138;49.246;9.100;2023-03-21T00:03:40;98957.44;;;11.89;73.57
14120;BME280;7138;49.246;9.100;2023-03-21T00:06:11;98960.03;;;11.91;73.43
14120;BME280;7138;49.246;9.100;2023-03-21T00:08:38;98959.16;;;11.93;73.36
14120;BME280;7138;49.246;9.100;2023-03-21T00:11:08;98954.84;;;11.92;73.82
14120;BME280;7138;49.246;9.100;2023-03-21T00:13:35;98956.56;;;11.95;74.29
14120;BME280;7138;49.246;9.100;2023-03-21T00:16:04;98952.22;;;11.98;73.82
14120;BME280;7138;49.246;9.100;2023-03-21T00:18:31;98950.50;;;11.99;74.14
14120;BME280;7138;49.246;9.100;2023-03-21T00:21:00;98932.38;;;11.97;73.64
14120;BME280;7138;49.246;9.100;2023-03-21T00:23:29;98947.91;;;12.13;73.27
14120;BME280;7138;49.246;9.100;2023-03-21T00:25:56;98952.19;;;12.14;73.97
14120;BME280;7138;49.246;9.100;2023-03-21T00:28:22;98952.16;;;12.23;73.63
14120;BME280;7138;49.246;9.100;2023-03-21T00:30:49;98946.97;;;12.27;73.92
14120;BME280;7138;49.246;9.100;2023-03-21T00:33:15;98947.81;;;12.32;74.67
14120;BME280;7138;49.246;9.100;2023-03-21T00:35:45;98944.34;;;12.36;74.62
14120;BME280;7138;49.246;9.100;2023-03-21T00:38:14;98939.16;;;12.42;74.49
14120;BME280;7138;49.246;9.100;2023-03-21T00:40:40;98940.00;;;12.46;74.44
14120;BME280;7138;49.246;9.100;2023-03-21T00:43:06;98936.53;;;12.48;74.79
14120;BME280;7138;49.246;9.100;2023-03-21T00:45:31;98937.38;;;12.49;74.70
14120;BME280;7138;49.246;9.100;2023-03-21T00:47:57;98919.22;;;12.47;75.06
14120;BME280;7138;49.246;9.100;2023-03-21T00:50:24;98925.28;;;12.48;75.03
14120;BME280;7138;49.246;9.100;2023-03-21T00:52:50;98920.06;;;12.51;74.87
14120;BME280;7138;49.246;9.100;2023-03-21T00:55:18;98921.81;;;12.50;74.95
14120;BME280;7138;49.246;9.100;2023-03-21T00:57:44;98923.53;;;12.51;75.40
14120;BME280;7138;49.246;9.100;2023-03-21T01:00:13;98911.44;;;12.47;75.42
14120;BME280;7138;49.246;9.100;2023-03-21T01:02:40;98913.19;;;12.45;75.45
14120;BME280;7138;49.246;9.100;2023-03-21T01:05:27;98908.91;;;12.38;75.88
14120;BME280;7138;49.246;9.100;2023-03-21T01:08:12;98909.78;;;12.36;75.52
14120;BME280;7138;49.246;9.100;2023-03-21T01:10:43;98909.78;;;12.33;76.10
14120;BME280;7138;49.246;9.100;2023-03-21T01:13:12;98909.78;;;12.34;76.14
14120;BME280;7138;49.246;9.100;2023-03-21T01:15:44;98908.03;;;12.35;75.66
14120;BME280;7138;49.246;9.100;2023-03-21T01:18:11;98906.34;;;12.31;75.54
14120;BME280;7138;49.246;9.100;2023-03-21T01:20:39;98903.75;;;12.31;75.82
14120;BME280;7138;49.246;9.100;2023-03-21T01:23:06;98895.13;;;12.30;75.49
14120;BME280;7138;49.246;9.100;2023-03-21T01:25:32;98898.56;;;12.31;75.52
14120;BME280;7138;49.246;9.100;2023-03-21T01:28:00;98898.56;;;12.31;75.66
14120;BME280;7138;49.246;9.100;2023-03-21T01:30:26;98897.72;;;12.30;75.23
14120;BME280;7138;49.246;9.100;2023-03-21T01:32:52;98895.97;;;12.31;75.83
14120;BME280;7138;49.246;9.100;2023-03-21T01:35:18;98896.81;;;12.31;75.88
14120;BME280;7138;49.246;9.100;2023-03-21T01:37:44;98896.84;;;12.30;76.01
14120;BME280;7138;49.246;9.100;2023-03-21T01:40:15;98895.97;;;12.29;75.97
14120;BME280;7138;49.246;9.100;2023-03-21T01:42:41;98891.66;;;12.25;75.29
14120;BME280;7138;49.246;9.100;2023-03-21T01:48:27;98888.28;;;12.16;76.33
14120;BME280;7138;49.246;9.100;2023-03-21T01:50:55;98885.69;;;12.16;76.23
14120;BME280;7138;49.246;9.100;2023-03-21T01:53:26;98881.34;;;12.18;76.63
14120;BME280;7138;49.246;9.100;2023-03-21T01:55:55;98878.75;;;12.18;77.02
14120;BME280;7138;49.246;9.100;2023-03-21T01:58:22;98878.72;;;12.16;76.68
14120;BME280;7138;49.246;9.100;2023-03-21T02:00:50;98870.97;;;12.15;76.66
14120;BME280;7138;49.246;9.100;2023-03-21T02:03:17;98876.16;;;12.15;76.93
14120;BME280;7138;49.246;9.100;2023-03-21T02:05:58;98865.78;;;12.13;76.82
14120;BME280;7138;49.246;9.100;2023-03-21T02:08:29;98870.97;;;12.15;76.72
14120;BME280;7138;49.246;9.100;2023-03-21T02:10:56;98862.38;;;12.13;76.94
14120;BME280;7138;49.246;9.100;2023-03-21T02:13:22;98864.09;;;12.07;76.81
14120;BME280;7138;49.246;9.100;2023-03-21T02:15:58;98861.50;;;12.09;77.12
14120;BME280;7138;49.246;9.100;2023-03-21T02:18:37;98859.78;;;12.08;77.32
14120;BME280;7138;49.246;9.100;2023-03-21T02:21:32;98859.84;;;11.94;77.91
14120;BME280;7138;49.246;9.100;2023-03-21T02:24:28;98854.63;;;11.96;78.24
14120;BME280;7138;49.246;9.100;2023-03-21T02:27:10;98855.50;;;11.93;77.83
14120;BME280;7138;49.246;9.100;2023-03-21T02:30:21;98857.25;;;11.91;77.43
14120;BME280;7138;49.246;9.100;2023-03-21T02:33:21;98854.69;;;11.81;77.54
14120;BME280;7138;49.246;9.100;2023-03-21T02:36:10;98848.66;;;11.80;77.97
14120;BME280;7138;49.246;9.100;2023-03-21T02:38:51;98855.56;;;11.81;77.62
14120;BME280;7138;49.246;9.100;2023-03-21T02:41:25;98853.81;;;11.83;77.71
14120;BME280;7138;49.246;9.100;2023-03-21T02:43:58;98850.38;;;11.84;77.60
14120;BME280;7138;49.246;9.100;2023-03-21T02:46:36;98855.53;;;11.86;77.86
14120;BME280;7138;49.246;9.100;2023-03-21T02:49:10;98860.72;;;11.86;77.24
14120;BME280;7138;49.246;9.100;2023-03-21T02:51:42;98850.38;;;11.84;77.90
14120;BME280;7138;49.246;9.100;2023-03-21T02:54:15;98854.69;;;11.87;78.01
14120;BME280;7138;49.246;9.100;2023-03-21T02:59:20;98857.25;;;11.91;77.92
14120;BME280;7138;49.246;9.100;2023-03-21T03:01:49;98849.50;;;11.91;77.56
14120;BME280;7138;49.246;9.100;2023-03-21T03:04:19;98848.59;;;11.92;77.30
14120;BME280;7138;49.246;9.100;2023-03-21T03:07:04;98850.31;;;11.96;77.45
14120;BME280;7138;49.246;9.100;2023-03-21T03:09:48;98848.59;;;11.95;77.31
14120;BME280;7138;49.246;9.100;2023-03-21T03:12:28;98857.25;;;11.94;77.31
14120;BME280;7138;49.246;9.100;2023-03-21T03:15:12;98848.59;;;11.95;77.47
14120;BME280;7138;49.246;9.100;2023-03-21T03:17:51;98852.06;;;11.96;77.46
14120;BME280;7138;49.246;9.100;2023-03-21T03:20:35;98844.28;;;11.97;77.27
14120;BME280;7138;49.246;9.100;2023-03-21T03:23:14;98846.88;;;11.97;77.32
14120;BME280;7138;49.246;9.100;2023-03-21T03:25:50;98845.13;;;11.98;77.12
14120;BME280;7138;49.246;9.100;2023-03-21T03:28:24;98844.25;;;11.99;78.22
14120;BME280;7138;49.246;9.100;2023-03-21T03:30:53;98836.50;;;11.93;78.81
14120;BME280;7138;49.246;9.100;2023-03-21T03:33:21;98838.22;;;11.95;78.96
14120;BME280;7138;49.246;9.100;2023-03-21T03:35:49;98833.06;;;11.91;79.38
14120;BME280;7138;49.246;9.100;2023-03-21T03:38:19;98828.75;;;11.93;79.01
14120;BME280;7138;49.246;9.100;2023-03-21T03:40:52;98825.28;;;11.89;79.17
14120;BME280;7138;49.246;9.100;2023-03-21T03:43:27;98821.00;;;11.85;78.74
14120;BME280;7138;49.246;9.100;2023-03-21T03:46:03;98827.91;;;11.91;78.98
14120;BME280;7138;49.246;9.100;2023-03-21T03:48:38;98831.38;;;11.88;78.94
14120;BME280;7138;49.246;9.100;2023-03-21T03:51:16;98827.03;;;11.87;79.20
14120;BME280;7138;49.246;9.100;2023-03-21T03:53:51;98833.94;;;11.87;78.64
14120;BME280;7138;49.246;9.100;2023-03-21T03:56:19;98833.06;;;11.86;79.06
14120;BME280;7138;49.246;9.100;2023-03-21T03:58:46;98839.13;;;11.87;79.19
14120;BME280;7138;49.246;9.100;2023-03-21T04:01:12;98835.66;;;11.86;79.80
14120;BME280;7138;49.246;9.100;2023-03-21T04:03:41;98838.28;;;11.82;79.73
14120;BME280;7138;49.246;9.100;2023-03-21T04:06:08;98838.31;;;11.73;80.22
14120;BME280;7138;49.246;9.100;2023-03-21T04:08:33;98836.59;;;11.67;80.58
14120;BME280;7138;49.246;9.100;2023-03-21T04:11:02;98844.34;;;11.69;80.60
14120;BME280;7138;49.246;9.100;2023-03-21T04:13:29;98838.34;;;11.70;80.85
14120;BME280;7138;49.246;9.100;2023-03-21T04:15:55;98836.56;;;11.69;81.03
14120;BME280;7138;49.246;9.100;2023-03-21T04:18:21;98839.16;;;11.69;81.42
14120;BME280;7138;49.246;9.100;2023-03-21T04:20:48;98831.38;;;11.61;81.55
14120;BME280;7138;49.246;9.100;2023-03-21T04:23:15;98834.00;;;11.57;80.98
14120;BME280;7138;49.246;9.100;2023-03-21T04:25:43;98837.47;;;11.54;80.66
14120;BME280;7138;49.246;9.100;2023-03-21T04:28:09;98828.84;;;11.53;81.01
14120;BME280;7138;49.246;9.100;2023-03-21T04:30:37;98836.59;;;11.53;80.88
14120;BME280;7138;49.246;9.100;2023-03-21T04:33:03;98834.88;;;11.52;81.33
14120;BME280;7138;49.246;9.100;2023-03-21T04:35:29;98832.28;;;11.52;81.50
14120;BME280;7138;49.246;9.100;2023-03-21T04:37:55;98827.97;;;11.50;81.56
14120;BME280;7138;49.246;9.100;2023-03-21T04:40:21;98833.16;;;11.47;81.79
14120;BME280;7138;49.246;9.100;2023-03-21T04:42:49;98826.28;;;11.38;81.74
14120;BME280;7138;49.246;9.100;2023-03-21T04:45:16;98825.44;;;11.32;82.10
14120;BME280;7138;49.246;9.100;2023-03-21T04:47:43;98824.56;;;11.33;82.19
14120;BME280;7138;49.246;9.100;2023-03-21T04:50:11;98813.38;;;11.23;82.03
14120;BME280;7138;49.246;9.100;2023-03-21T04:52:38;98825.44;;;11.30;82.87
14120;BME280;7138;49.246;9.100;2023-03-21T04:55:05;98813.38;;;11.26;82.75
14120;BME280;7138;49.246;9.100;2023-03-21T04:57:35;98812.50;;;11.26;82.96
14120;BME280;7138;49.246;9.100;2023-03-21T05:00:01;98807.34;;;11.27;82.31
14120;BME280;7138;49.246;9.100;2023-03-21T05:02:26;98818.53;;;11.28;82.36
14120;BME280;7138;49.246;9.100;2023-03-21T05:04:54;98813.38;;;11.26;82.37
14120;BME280;7138;49.246;9.100;2023-03-21T05:07:22;98809.06;;;11.24;82.69
14120;BME280;7138;49.246;9.100;2023-03-21T05:09:51;98808.19;;;11.22;82.83
14120;BME280;7138;49.246;9.100;2023-03-21T05:12:17;98799.56;;;11.21;82.65
14120;BME280;7138;49.246;9.100;2023-03-21T05:14:44;98802.16;;;11.20;82.75
14120;BME280;7138;49.246;9.100;2023-03-21T05:17:10;98815.94;;;11.16;82.92
14120;BME280;7138;49.246;9.100;2023-03-21T05:19:40;98809.06;;;11.13;82.41
14120;BME280;7138;49.246;9.100;2023-03-21T05:22:10;98818.53;;;11.19;83.01
14120;BME280;7138;49.246;9.100;2023-03-21T05:24:37;98814.25;;;11.21;83.05
14120;BME280;7138;49.246;9.100;2023-03-21T05:27:06;98814.22;;;11.24;82.54
14120;BME280;7138;49.246;9.100;2023-03-21T05:29:33;98816.81;;;11.24;82.53
14120;BME280;7138;49.246;9.100;2023-03-21T05:32:00;98818.53;;;11.26;82.71
14120;BME280;7138;49.246;9.100;2023-03-21T05:34:26;98809.06;;;11.27;82.37
14120;BME280;7138;49.246;9.100;2023-03-21T05:36:53;98810.75;;;11.31;82.85
14120;BME280;7138;49.246;9.100;2023-03-21T05:39:20;98810.75;;;11.31;82.86
14120;BME280;7138;49.246;9.100;2023-03-21T05:41:46;98806.47;;;11.30;82.46
14120;BME280;7138;49.246;9.100;2023-03-21T05:44:12;98818.53;;;11.32;82.38
14120;BME280;7138;49.246;9.100;2023-03-21T05:46:38;98815.09;;;11.33;82.42
14120;BME280;7138;49.246;9.100;2023-03-21T05:49:04;98819.38;;;11.39;82.51
14120;BME280;7138;49.246;9.100;2023-03-21T05:51:30;98817.63;;;11.41;83.20
14120;BME280;7138;49.246;9.100;2023-03-21T05:53:55;98819.34;;;11.46;82.62
14120;BME280;7138;49.246;9.100;2023-03-21T05:56:23;98830.56;;;11.50;82.89
14120;BME280;7138;49.246;9.100;2023-03-21T05:58:48;98824.53;;;11.51;83.07
14120;BME280;7138;49.246;9.100;2023-03-21T06:01:14;98816.75;;;11.54;83.30
14120;BME280;7138;49.246;9.100;2023-03-21T06:03:40;98821.03;;;11.55;82.48
14120;BME280;7138;49.246;9.100;2023-03-21T06:06:08;98822.81;;;11.51;82.86
14120;BME280;7138;49.246;9.100;2023-03-21T06:08:34;98834.03;;;11.47;82.47
14120;BME280;7138;49.246;9.100;2023-03-21T06:10:59;98833.16;;;11.50;82.58
14120;BME280;7138;49.246;9.100;2023-03-21T06:13:27;98832.31;;;11.51;82.45
14120;BME280;7138;49.246;9.100;2023-03-21T06:15:53;98820.22;;;11.47;82.83
14120;BME280;7138;49.246;9.100;2023-03-21T06:18:18;98833.16;;;11.58;83.13
14120;BME280;7138;49.246;9.100;2023-03-21T06:20:44;98829.69;;;11.60;83.08
14120;BME280;7138;49.246;9.100;2023-03-21T06:23:10;98832.28;;;11.63;83.79
14120;BME280;7138;49.246;9.100;2023-03-21T06:25:36;98838.28;;;11.65;83.89
14120;BME280;7138;49.246;9.100;2023-03-21T06:28:02;98830.56;;;11.61;84.02
14120;BME280;7138;49.246;9.100;2023-03-21T06:30:29;98833.97;;;11.61;84.47
14120;BME280;7138;49.246;9.100;2023-03-21T06:32:55;98827.94;;;11.62;83.62
14120;BME280;7138;49.246;9.100;2023-03-21T06:35:21;98830.53;;;11.64;84.59
14120;BME280;7138;49.246;9.100;2023-03-21T06:37:47;98832.25;;;11.68;85.19
14120;BME280;7138;49.246;9.100;2023-03-21T06:40:14;98836.59;;;11.70;85.23
14120;BME280;7138;49.246;9.100;2023-03-21T06:42:40;98833.13;;;11.74;84.56
14120;BME280;7138;49.246;9.100;2023-03-21T06:45:07;98832.22;;;11.83;84.64
14120;BME280;7138;49.246;9.100;2023-03-21T06:47:34;98836.53;;;11.91;84.76
14120;BME280;7138;49.246;9.100;2023-03-21T06:50:00;98837.38;;;11.96;84.09
14120;BME280;7138;49.246;9.100;2023-03-21T06:52:26;98831.31;;;12.00;83.79
14120;BME280;7138;49.246;9.100;2023-03-21T06:54:52;98834.75;;;12.05;84.11
14120;BME280;7138;49.246;9.100;2023-03-21T06:57:18;98826.09;;;12.10;84.23
14120;BME280;7138;49.246;9.100;2023-03-21T06:59:47;98824.31;;;12.13;83.17
14120;BME280;7138;49.246;9.100;2023-03-21T07:02:12;98824.31;;;12.16;84.24
14120;BME280;7138;49.246;9.100;2023-03-21T07:04:40;98828.63;;;12.19;84.37
14120;BME280;7138;49.246;9.100;2023-03-21T07:07:05;98825.16;;;12.24;84.00
14120;BME280;7138;49.246;9.100;2023-03-21T07:09:31;98829.41;;;12.33;84.65
14120;BME280;7138;49.246;9.100;2023-03-21T07:11:57;98829.31;;;12.46;84.57
14120;BME280;7138;49.246;9.100;2023-03-21T07:14:23;98830.94;;;12.63;84.31
14120;BME280;7138;49.246;9.100;2023-03-21T07:16:49;98825.59;;;12.84;83.46
14120;BME280;7138;49.246;9.100;2023-03-21T07:19:15;98830.69;;;12.97;82.60
14120;BME280;7138;49.246;9.100;2023-03-21T07:21:42;98821.09;;;13.07;83.60
14120;BME280;7138;49.246;9.100;2023-03-21T07:24:08;98824.38;;;13.29;82.94
14120;BME280;7138;49.246;9.100;2023-03-21T07:26:34;98824.19;;;13.47;81.89
14120;BME280;7138;49.246;9.100;2023-03-21T07:29:00;98820.63;;;13.58;81.61
14120;BME280;7138;49.246;9.100;2023-03-21T07:31:26;98825.72;;;13.67;80.35
14120;BME280;7138;49.246;9.100;2023-03-21T07:33:51;98821.19;;;13.83;80.14
14120;BME280;7138;49.246;9.100;2023-03-21T07:36:17;98807.16;;;13.98;79.93
14120;BME280;7138;49.246;9.100;2023-03-21T07:38:45;98821.56;;;14.24;78.18
14120;BME280;7138;49.246;9.100;2023-03-21T07:41:11;98824.81;;;14.42;78.33
14120;BME280;7138;49.246;9.100;2023-03-21T07:43:38;98797.88;;;14.46;77.00
14120;BME280;7138;49.246;9.100;2023-03-21T07:46:04;98814.72;;;14.78;76.45
14120;BME280;7138;49.246;9.100;2023-03-21T07:48:30;98818.81;;;14.93;76.91
14120;BME280;7138;49.246;9.100;2023-03-21T07:50:56;98822.84;;;15.12;78.00
14120;BME280;7138;49.246;9.100;2023-03-21T07:53:22;98822.63;;;15.24;76.59
14120;BME280;7138;49.246;9.100;2023-03-21T07:55:55;98817.19;;;15.37;77.28
14120;BME280;7138;49.246;9.100;2023-03-21T07:58:21;98818.63;;;15.54;77.26
14120;BME280;7138;49.246;9.100;2023-03-21T08:00:47;98819.91;;;15.78;76.20
14120;BME280;7138;49.246;9.100;2023-03-21T08:03:13;98816.06;;;15.97;75.17
14120;BME280;7138;49.246;9.100;2023-03-21T08:05:39;98809.66;;;16.12;73.15
14120;BME280;7138;49.246;9.100;2023-03-21T08:08:07;98815.53;;;16.21;72.32
14120;BME280;7138;49.246;9.100;2023-03-21T08:10:33;98813.59;;;16.31;72.61
14120;BME280;7138;49.246;9.100;2023-03-21T08:13:01;98808.19;;;16.38;72.39
14120;BME280;7138;49.246;9.100;2023-03-21T08:15:27;98804.50;;;16.49;72.56
14120;BME280;7138;49.246;9.100;2023-03-21T08:17:53;98801.63;;;16.61;71.99
14120;BME280;7138;49.246;9.100;2023-03-21T08:20:21;98804.75;;;16.76;71.89
14120;BME280;7138;49.246;9.100;2023-03-21T08:22:48;98801.81;;;16.90;71.72
14120;BME280;7138;49.246;9.100;2023-03-21T08:25:17;98801.38;;;17.08;71.42
14120;BME280;7138;49.246;9.100;2023-03-21T08:27:45;98794.19;;;17.16;70.71
14120;BME280;7138;49.246;9.100;2023-03-21T08:32:41;98797.28;;;17.32;69.18
14120;BME280;7138;49.246;9.100;2023-03-21T08:35:10;98802.13;;;17.45;70.21
14120;BME280;7138;49.246;9.100;2023-03-21T08:37:38;98801.72;;;17.61;69.82
14120;BME280;7138;49.246;9.100;2023-03-21T08:40:06;98809.13;;;17.77;67.98
14120;BME280;7138;49.246;9.100;2023-03-21T08:42:35;98797.56;;;17.84;65.76
14120;BME280;7138;49.246;9.100;2023-03-21T08:45:02;98795.13;;;17.78;65.55
14120;BME280;7138;49.246;9.100;2023-03-21T08:47:30;98791.53;;;17.82;65.72
14120;BME280;7138;49.246;9.100;2023-03-21T08:49:56;98795.56;;;17.94;65.73
14120;BME280;7138;49.246;9.100;2023-03-21T08:52:23;98802.19;;;18.06;65.66
14120;BME280;7138;49.246;9.100;2023-03-21T08:54:50;98793.38;;;18.10;66.00
14120;BME280;7138;49.246;9.100;2023-03-21T08:57:16;98797.28;;;18.24;65.12
14120;BME280;7138;49.246;9.100;2023-03-21T08:59:41;98799.81;;;18.27;65.76
14120;BME280;7138;49.246;9.100;2023-03-21T09:02:09;98799.53;;;18.36;65.83
14120;BME280;7138;49.246;9.100;2023-03-21T09:04:37;98793.66;;;18.58;65.56
14120;BME280;7138;49.246;9.100;2023-03-21T09:07:03;98792.78;;;18.59;65.88
14120;BME280;7138;49.246;9.100;2023-03-21T09:09:30;98789.72;;;18.72;66.35
14120;BME280;7138;49.246;9.100;2023-03-21T09:11:57;98792.59;;;18.91;66.24
14120;BME280;7138;49.246;9.100;2023-03-21T09:14:23;98791.16;;;19.08;66.18
14120;BME280;7138;49.246;9.100;2023-03-21T09:16:49;98793.41;;;19.19;65.21
14120;BME280;7138;49.246;9.100;2023-03-21T09:19:15;98785.97;;;19.32;64.78
14120;BME280;7138;49.246;9.100;2023-03-21T09:21:43;98792.56;;;19.45;64.95
14120;BME280;7138;49.246;9.100;2023-03-21T09:24:10;98791.41;;;19.52;65.20
14120;BME280;7138;49.246;9.100;2023-03-21T09:26:37;98791.09;;;19.61;62.19
14120;BME280;7138;49.246;9.100;2023-03-21T09:29:03;98784.38;;;19.77;63.62
14120;BME280;7138;49.246;9.100;2023-03-21T09:31:30;98789.88;;;19.20;59.46
14120;BME280;7138;49.246;9.100;2023-03-21T09:33:57;98795.34;;;19.39;62.36
14120;BME280;7138;49.246;9.100;2023-03-21T09:36:24;98801.19;;;19.48;61.93
14120;BME280;7138;49.246;9.100;2023-03-21T09:38:53;98795.31;;;19.65;60.96
14120;BME280;7138;49.246;9.100;2023-03-21T09:41:40;98789.47;;;19.82;59.71
14120;BME280;7138;49.246;9.100;2023-03-21T09:44:29;98799.22;;;19.78;59.87
14120;BME280;7138;49.246;9.100;2023-03-21T09:47:03;98786.25;;;19.74;59.16
14120;BME280;7138;49.246;9.100;2023-03-21T09:49:35;98806.56;;;19.69;58.34
14120;BME280;7138;49.246;9.100;2023-03-21T09:52:13;98802.97;;;19.71;58.78
14120;BME280;7138;49.246;9.100;2023-03-21T09:54:44;98803.94;;;19.69;58.76
14120;BME280;7138;49.246;9.100;2023-03-21T09:57:21;98792.56;;;19.70;58.49
14120;BME280;7138;49.246;9.100;2023-03-21T09:59:53;98803.09;;;19.68;59.00
14120;BME280;7138;49.246;9.100;2023-03-21T10:02:33;98796.44;;;19.58;58.38
14120;BME280;7138;49.246;9.100;2023-03-21T10:05:08;98794.47;;;19.64;59.26
14120;BME280;7138;49.246;9.100;2023-03-21T10:07:42;98787.34;;;19.68;59.58
14120;BME280;7138;49.246;9.100;2023-03-21T10:10:19;98782.22;;;19.88;59.21
14120;BME280;7138;49.246;9.100;2023-03-21T10:12:49;98786.34;;;19.95;58.52
14120;BME280;7138;49.246;9.100;2023-03-21T10:15:19;98783.25;;;19.84;58.90
14120;BME280;7138;49.246;9.100;2023-03-21T10:17:54;98781.00;;;19.74;58.58
14120;BME280;7138;49.246;9.100;2023-03-21T10:20:24;98785.88;;;19.84;59.44
14120;BME280;7138;49.246;9.100;2023-03-21T10:22:54;98776.84;;;19.68;59.04
14120;BME280;7138;49.246;9.100;2023-03-21T10:25:29;98780.44;;;19.66;59.33
14120;BME280;7138;49.246;9.100;2023-03-21T10:27:58;98772.06;;;19.79;60.02
14120;BME280;7138;49.246;9.100;2023-03-21T10:30:34;98772.22;;;19.98;60.61
14120;BME280;7138;49.246;9.100;2023-03-21T10:33:05;98768.38;;;20.08;59.38
14120;BME280;7138;49.246;9.100;2023-03-21T10:35:36;98762.19;;;19.62;57.56
14120;BME280;7138;49.246;9.100;2023-03-21T10:38:05;98750.69;;;19.67;59.11
14120;BME280;7138;49.246;9.100;2023-03-21T10:40:32;98760.00;;;19.74;59.30
14120;BME280;7138;49.246;9.100;2023-03-21T10:43:18;98762.41;;;19.80;59.16
14120;BME280;7138;49.246;9.100;2023-03-21T10:45:46;98752.00;;;19.78;59.13
14120;BME280;7138;49.246;9.100;2023-03-21T10:48:13;98744.91;;;19.80;60.83
14120;BME280;7138;49.246;9.100;2023-03-21T10:50:39;98757.50;;;19.71;59.11
14120;BME280;7138;49.246;9.100;2023-03-21T10:53:16;98758.25;;;19.74;58.68
14120;BME280;7138;49.246;9.100;2023-03-21T10:55:47;98759.03;;;19.76;58.83
14120;BME280;7138;49.246;9.100;2023-03-21T10:58:19;98760.47;;;19.61;57.40
14120;BME280;7138;49.246;9.100;2023-03-21T11:00:56;98766.09;;;19.51;58.11
14120;BME280;7138;49.246;9.100;2023-03-21T11:03:29;98767.19;;;19.19;57.34
14120;BME280;7138;49.246;9.100;2023-03-21T11:06:01;98765.56;;;19.15;58.88
14120;BME280;7138;49.246;9.100;2023-03-21T11:08:29;98763.75;;;19.17;60.32
14120;BME280;7138;49.246;9.100;2023-03-21T11:11:03;98758.44;;;19.19;59.39
14120;BME280;7138;49.246;9.100;2023-03-21T11:13:36;98752.69;;;19.34;59.84
14120;BME280;7138;49.246;9.100;2023-03-21T11:16:07;98753.44;;;19.37;59.37
14120;BME280;7138;49.246;9.100;2023-03-21T11:18:40;98758.31;;;19.23;58.16
14120;BME280;7138;49.246;9.100;2023-03-21T11:21:09;98750.47;;;19.22;58.92
14120;BME280;7138;49.246;9.100;2023-03-21T11:23:41;98756.09;;;19.11;59.33
14120;BME280;7138;49.246;9.100;2023-03-21T11:26:18;98754.25;;;18.88;59.61
14120;BME280;7138;49.246;9.100;2023-03-21T11:28:49;98744.72;;;18.86;59.67
14120;BME280;7138;49.246;9.100;2023-03-21T11:31:19;98744.47;;;18.67;60.49
14120;BME280;7138;49.246;9.100;2023-03-21T11:33:51;98753.75;;;18.51;60.57
14120;BME280;7138;49.246;9.100;2023-03-21T11:36:31;98747.06;;;18.39;60.91
14120;BME280;7138;49.246;9.100;2023-03-21T11:39:14;98741.47;;;18.24;60.73
14120;BME280;7138;49.246;9.100;2023-03-21T11:41:50;98741.31;;;18.28;61.90
14120;BME280;7138;49.246;9.100;2023-03-21T11:44:27;98748.75;;;18.42;63.36
14120;BME280;7138;49.246;9.100;2023-03-21T11:46:54;98742.50;;;18.46;63.18
14120;BME280;7138;49.246;9.100;2023-03-21T11:49:21;98738.06;;;18.49;62.76
14120;BME280;7138;49.246;9.100;2023-03-21T11:51:58;98732.50;;;18.60;62.00
14120;BME280;7138;49.246;9.100;2023-03-21T11:54:37;98727.38;;;18.55;59.76
14120;BME280;7138;49.246;9.100;2023-03-21T11:57:21;98724.81;;;18.26;60.36
14120;BME280;7138;49.246;9.100;2023-03-21T12:00:00;98719.88;;;18.17;61.01
14120;BME280;7138;49.246;9.100;2023-03-21T12:05:53;98706.63;;;18.22;62.05
14120;BME280;7138;49.246;9.100;2023-03-21T12:08:33;98713.09;;;18.10;60.83
14120;BME280;7138;49.246;9.100;2023-03-21T12:11:14;98704.03;;;17.92;61.90
14120;BME280;7138;49.246;9.100;2023-03-21T12:14:00;98699.44;;;18.00;62.67
14120;BME280;7138;49.246;9.100;2023-03-21T12:16:42;98704.28;;;18.13;61.97
14120;BME280;7138;49.246;9.100;2023-03-21T12:19:35;98705.25;;;18.10;61.15
14120;BME280;7138;49.246;9.100;2023-03-21T12:22:16;98699.25;;;18.07;61.41
14120;BME280;7138;49.246;9.100;2023-03-21T12:24:52;98696.41;;;18.14;62.03
14120;BME280;7138;49.246;9.100;2023-03-21T12:27:32;98689.06;;;18.25;62.83
14120;BME280;7138;49.246;9.100;2023-03-21T12:30:23;98686.72;;;18.44;64.57
14120;BME280;7138;49.246;9.100;2023-03-21T12:33:10;98675.00;;;18.55;62.84
14120;BME280;7138;49.246;9.100;2023-03-21T12:35:59;98676.34;;;18.67;62.69
14120;BME280;7138;49.246;9.100;2023-03-21T12:38:39;98677.53;;;18.59;62.96
14120;BME280;7138;49.246;9.100;2023-03-21T12:41:22;98676.34;;;18.67;61.91
14120;BME280;7138;49.246;9.100;2023-03-21T12:43:54;98666.84;;;18.65;62.63
14120;BME280;7138;49.246;9.100;2023-03-21T12:46:31;98664.78;;;18.74;64.04
14120;BME280;7138;49.246;9.100;2023-03-21T12:49:02;98668.28;;;18.73;63.79
14120;BME280;7138;49.246;9.100;2023-03-21T12:51:36;98670.22;;;18.68;64.94
14120;BME280;7138;49.246;9.100;2023-03-21T12:54:16;98668.38;;;18.72;64.10
14120;BME280;7138;49.246;9.100;2023-03-21T12:56:51;98670.25;;;18.67;63.34
14120;BME280;7138;49.246;9.100;2023-03-21T12:59:30;98669.47;;;18.65;63.98
14120;BME280;7138;49.246;9.100;2023-03-21T13:02:13;98664.88;;;18.71;63.08
14120;BME280;7138;49.246;9.100;2023-03-21T13:04:47;98652.66;;;18.72;63.84
14120;BME280;7138;49.246;9.100;2023-03-21T13:07:19;98654.94;;;18.81;62.76
14120;BME280;7138;49.246;9.100;2023-03-21T13:09:46;98646.81;;;18.88;62.81
14120;BME280;7138;49.246;9.100;2023-03-21T13:12:31;98646.66;;;18.93;61.39
14120;BME280;7138;49.246;9.100;2023-03-21T13:15:28;98659.28;;;18.55;59.51
14120;BME280;7138;49.246;9.100;2023-03-21T13:18:03;98650.81;;;18.47;61.40
14120;BME280;7138;49.246;9.100;2023-03-21T13:20:44;98646.19;;;18.55;62.23
14120;BME280;7138;49.246;9.100;2023-03-21T13:23:12;98638.31;;;18.57;63.12
14120;BME280;7138;49.246;9.100;2023-03-21T13:25:43;98642.28;;;18.69;62.55
14120;BME280;7138;49.246;9.100;2023-03-21T13:28:20;98644.69;;;18.75;61.71
14120;BME280;7138;49.246;9.100;2023-03-21T13:30:47;98642.91;;;18.75;62.76
14120;BME280;7138;49.246;9.100;2023-03-21T13:33:21;98638.50;;;18.76;62.36
14120;BME280;7138;49.246;9.100;2023-03-21T13:35:58;98638.50;;;18.76;62.68
14120;BME280;7138;49.246;9.100;2023-03-21T13:38:32;98617.53;;;18.76;62.63
14120;BME280;7138;49.246;9.100;2023-03-21T13:41:02;98624.50;;;18.77;62.28